Farmersville, CA

9:34 AM PDT on September 17, 2014 (GMT -0700)
Farmersville High School | Change Station
CLOSE
Current Station
Personal Weather Station
Location: Farmersville, CA
Elevation: 374 ft
Nearby Weather Stations

Elev 374 ft 36.31 °N, 119.20 °W | Updated 40 seconds ago

Clear
Clear
77.8 °F
Feels Like 79 °F
N
3.0
Wind Variable Wind from WSW
Gusts 4.0 mph

Today
High -- | Low -- °F
--% Chance of Precip.
Yesterday
High -- | Low -- °F
Precip. -- in
6:40 AM 7:01 PM
Waning Crescent, 35% visible
Pressure 29.80 in
Visibility 8.0 miles
Clouds Clear
Heat Index 79 °F
Dew Point 61 °F
Humidity 56%
Rainfall 0.00 in
Snow Depth 1 in , 0 in , 1 in
UV 1.9 out of 12
Pollen 6.90 out of 12
Ozone Good
PM2.5 Moderate
Flu Activity Not available.
METAR KVIS 171615Z AUTO 19003KT 8SM CLR 23/14 A2980 RMK AO1

More Conditions Fewer Conditions

Pressure 29.80 in
Visibility 8.0 miles
Clouds Clear
Heat Index 79 °F
Dew Point 61 °F
Humidity 56%
Rainfall 0.00 in
Snow Depth 1 in , 0 in , 1 in
UV 1.9 out of 12
Pollen 6.90 out of 12
Ozone Good
PM2.5 Moderate
Flu Activity Not available.
METAR KVIS 171615Z AUTO 19003KT 8SM CLR 23/14 A2980 RMK AO1

More Conditions Fewer Conditions

10-Day Weather Forecast

Almanac

Astronomy

Sep. 17, 2014 Rise Set
Actual Time 6:40 AM PDT 7:01 PM PDT
Civil Twilight 6:15 AM PDT 7:26 PM PDT
Nautical Twilight 5:44 AM PDT 7:56 PM PDT
Astronomical Twilight 5:14 AM PDT 8:27 PM PDT
Moon 12:52 AM PDT 3:07 PM PDT
Length of Visible Light 13h 11m
Length of Day
12h 20m
Tomorrow will be 2m 16s shorter.
Waning Crescent, 35% of the Moon is Illuminated
Today
Waning Crescent
Sep 24
New
Oct 1
First Quarter
Oct 8
Full
Oct 15
Last Quarter

Today's Extremes

State Highs State Lows

Community

WunderPhotos

Upload Photos

1,754,100 photos uploaded!

Nearby

Air Quality

  Air Quality AQ Index Pollutant
Yesterday Good
OZONE
Yesterday Good
PM2.5
Current Moderate
PM2.5
Current Good
OZONE
Wednesday Good
OZONE
Thursday Good
OZONE
Friday Good
OZONE
Saturday Good
OZONE
Sunday Good
OZONE

Snow Depth

Station Depth Elevation
Spratt Creek 1 in 6200 ft
Monitor Pass 0 in 8350 ft
Burnside Lake 1 in 8139 ft
Hagan's Meadow 0 in 8000 ft
Summit Meadow 0 in 9122 ft

Earthquake Activity

City Distance Mag. Time & Date
Lompoc, California 134 miles 2.5 8:13 AM PDT
2014-09-17
Minimum magnitude displayed is 2.5.

Coastal Water Temperatures

Place Temperature
No Stations Reporting

Nearby Weather Stations